Agar, South Dakota
Current Conditions -  °F | °C
As of 2:53 PM on Friday 28 Nov 2014 (Local Time) from KPIR Reporting Station
Clear Clear  
Wind Chill: 38°   Ceiling: Unl
Heat Index: 41°   Visibility: 10mi
Dew Point: 25°   Wind: 5mph
Humidity: 53%   Direction: 190°S
Pressure: 29.62"   Gusts: NA
Location:  44.84°N, 100.07°W
Report Text: KPIR 282053Z AUTO 19004KT 10SM CLR 05/M04 A2962 RMK AO2 SLP046 T00501039 55021
Loading
Personal Weather Stations






























Interactive Weather Map New forecast layout! Learn more

10-Day Weather Forecast

Advertisements
Track Severe Weather on mobile